sensor_id;sensor_type;location;lat;lon;timestamp;temperature;humidity
13446;DHT22;6795;51.232;3.764;2022-11-18T00:01:36;8.80;99.90
13446;DHT22;6795;51.232;3.764;2022-11-18T00:04:04;8.80;99.90
13446;DHT22;6795;51.232;3.764;2022-11-18T00:06:34;8.80;99.90
13446;DHT22;6795;51.232;3.764;2022-11-18T00:09:02;8.70;99.90
13446;DHT22;6795;51.232;3.764;2022-11-18T00:11:31;8.60;99.90
13446;DHT22;6795;51.232;3.764;2022-11-18T00:14:18;8.60;99.90
13446;DHT22;6795;51.232;3.764;2022-11-18T00:16:51;8.60;99.90
13446;DHT22;6795;51.232;3.764;2022-11-18T00:19:21;8.50;99.90
13446;DHT22;6795;51.232;3.764;2022-11-18T00:21:51;8.50;99.90
13446;DHT22;6795;51.232;3.764;2022-11-18T00:24:20;8.50;99.90
13446;DHT22;6795;51.232;3.764;2022-11-18T00:26:49;8.50;99.90
13446;DHT22;6795;51.232;3.764;2022-11-18T00:29:17;8.40;99.90
13446;DHT22;6795;51.232;3.764;2022-11-18T00:31:46;8.40;99.90
13446;DHT22;6795;51.232;3.764;2022-11-18T00:34:16;8.40;99.90
13446;DHT22;6795;51.232;3.764;2022-11-18T00:36:45;8.50;99.90
13446;DHT22;6795;51.232;3.764;2022-11-18T00:39:18;8.50;99.90
13446;DHT22;6795;51.232;3.764;2022-11-18T00:41:47;8.50;99.90
13446;DHT22;6795;51.232;3.764;2022-11-18T00:44:34;8.30;99.90
13446;DHT22;6795;51.232;3.764;2022-11-18T00:47:02;8.20;99.90
13446;DHT22;6795;51.232;3.764;2022-11-18T00:49:31;8.20;99.90
13446;DHT22;6795;51.232;3.764;2022-11-18T00:51:59;8.10;99.90
13446;DHT22;6795;51.232;3.764;2022-11-18T00:54:29;8.00;99.90
13446;DHT22;6795;51.232;3.764;2022-11-18T00:56:58;7.90;99.90
13446;DHT22;6795;51.232;3.764;2022-11-18T00:59:26;8.00;99.90
13446;DHT22;6795;51.232;3.764;2022-11-18T01:01:54;8.10;99.90
13446;DHT22;6795;51.232;3.764;2022-11-18T01:04:23;8.10;99.90
13446;DHT22;6795;51.232;3.764;2022-11-18T01:06:51;8.10;99.90
13446;DHT22;6795;51.232;3.764;2022-11-18T01:09:20;8.20;99.90
13446;DHT22;6795;51.232;3.764;2022-11-18T01:11:49;8.20;99.90
13446;DHT22;6795;51.232;3.764;2022-11-18T01:14:35;8.30;99.90
13446;DHT22;6795;51.232;3.764;2022-11-18T01:17:03;8.40;99.90
13446;DHT22;6795;51.232;3.764;2022-11-18T01:19:32;8.50;99.90
13446;DHT22;6795;51.232;3.764;2022-11-18T01:22:03;8.40;99.90
13446;DHT22;6795;51.232;3.764;2022-11-18T01:24:32;8.40;99.90
13446;DHT22;6795;51.232;3.764;2022-11-18T01:27:02;8.40;99.90
13446;DHT22;6795;51.232;3.764;2022-11-18T01:29:30;8.30;99.90
13446;DHT22;6795;51.232;3.764;2022-11-18T01:31:59;8.40;99.90
13446;DHT22;6795;51.232;3.764;2022-11-18T01:34:49;8.30;99.90
13446;DHT22;6795;51.232;3.764;2022-11-18T01:37:17;8.30;99.90
13446;DHT22;6795;51.232;3.764;2022-11-18T01:39:46;8.40;99.90
13446;DHT22;6795;51.232;3.764;2022-11-18T01:42:16;8.30;99.90
13446;DHT22;6795;51.232;3.764;2022-11-18T01:45:05;8.40;99.90
13446;DHT22;6795;51.232;3.764;2022-11-18T01:47:39;8.50;99.90
13446;DHT22;6795;51.232;3.764;2022-11-18T01:50:10;8.50;99.90
13446;DHT22;6795;51.232;3.764;2022-11-18T01:52:40;8.40;99.90
13446;DHT22;6795;51.232;3.764;2022-11-18T01:55:17;8.30;99.90
13446;DHT22;6795;51.232;3.764;2022-11-18T01:57:49;8.20;99.90
13446;DHT22;6795;51.232;3.764;2022-11-18T02:00:18;8.20;99.90
13446;DHT22;6795;51.232;3.764;2022-11-18T02:02:47;8.20;99.90
13446;DHT22;6795;51.232;3.764;2022-11-18T02:05:16;8.10;99.90
13446;DHT22;6795;51.232;3.764;2022-11-18T02:07:45;8.10;99.90
13446;DHT22;6795;51.232;3.764;2022-11-18T02:10:18;8.10;99.90
13446;DHT22;6795;51.232;3.764;2022-11-18T02:12:49;8.00;99.90
13446;DHT22;6795;51.232;3.764;2022-11-18T02:15:24;7.90;99.90
13446;DHT22;6795;51.232;3.764;2022-11-18T02:17:57;7.90;99.90
13446;DHT22;6795;51.232;3.764;2022-11-18T02:20:32;7.90;99.90
13446;DHT22;6795;51.232;3.764;2022-11-18T02:23:49;8.00;99.90
13446;DHT22;6795;51.232;3.764;2022-11-18T02:29:29;8.00;99.90
13446;DHT22;6795;51.232;3.764;2022-11-18T02:31:59;8.00;99.90
13446;DHT22;6795;51.232;3.764;2022-11-18T02:34:38;8.00;99.90
13446;DHT22;6795;51.232;3.764;2022-11-18T02:37:14;8.00;99.90
13446;DHT22;6795;51.232;3.764;2022-11-18T02:39:49;8.00;99.90
13446;DHT22;6795;51.232;3.764;2022-11-18T02:42:20;8.00;99.90
13446;DHT22;6795;51.232;3.764;2022-11-18T02:44:56;8.00;99.90
13446;DHT22;6795;51.232;3.764;2022-11-18T02:47:26;8.10;99.90
13446;DHT22;6795;51.232;3.764;2022-11-18T02:49:57;8.10;99.90
13446;DHT22;6795;51.232;3.764;2022-11-18T02:52:27;8.20;99.90
13446;DHT22;6795;51.232;3.764;2022-11-18T02:54:57;8.20;99.90
13446;DHT22;6795;51.232;3.764;2022-11-18T02:57:28;8.20;99.90
13446;DHT22;6795;51.232;3.764;2022-11-18T02:59:58;8.30;99.90
13446;DHT22;6795;51.232;3.764;2022-11-18T03:02:26;8.30;99.90
13446;DHT22;6795;51.232;3.764;2022-11-18T03:04:57;8.10;99.90
13446;DHT22;6795;51.232;3.764;2022-11-18T03:07:29;8.00;99.90
13446;DHT22;6795;51.232;3.764;2022-11-18T03:09:59;7.90;99.90
13446;DHT22;6795;51.232;3.764;2022-11-18T03:12:33;7.90;99.90
13446;DHT22;6795;51.232;3.764;2022-11-18T03:15:14;7.80;99.90
13446;DHT22;6795;51.232;3.764;2022-11-18T03:17:50;7.80;99.90
13446;DHT22;6795;51.232;3.764;2022-11-18T03:20:26;7.70;99.90
13446;DHT22;6795;51.232;3.764;2022-11-18T03:23:02;7.70;99.90
13446;DHT22;6795;51.232;3.764;2022-11-18T03:25:35;7.70;99.90
13446;DHT22;6795;51.232;3.764;2022-11-18T03:28:08;7.60;99.90
13446;DHT22;6795;51.232;3.764;2022-11-18T03:30:40;7.60;99.90
13446;DHT22;6795;51.232;3.764;2022-11-18T03:33:16;7.70;99.90
13446;DHT22;6795;51.232;3.764;2022-11-18T03:35:47;7.70;99.90
13446;DHT22;6795;51.232;3.764;2022-11-18T03:38:20;7.70;99.90
13446;DHT22;6795;51.232;3.764;2022-11-18T03:40:54;7.70;99.90
13446;DHT22;6795;51.232;3.764;2022-11-18T03:43:27;7.70;99.90
13446;DHT22;6795;51.232;3.764;2022-11-18T03:46:01;7.80;99.90
13446;DHT22;6795;51.232;3.764;2022-11-18T03:48:36;7.80;99.90
13446;DHT22;6795;51.232;3.764;2022-11-18T03:51:07;7.80;99.90
13446;DHT22;6795;51.232;3.764;2022-11-18T03:53:40;7.90;99.90
13446;DHT22;6795;51.232;3.764;2022-11-18T03:56:13;7.90;99.90
13446;DHT22;6795;51.232;3.764;2022-11-18T03:58:48;7.90;99.90
13446;DHT22;6795;51.232;3.764;2022-11-18T04:01:27;8.00;99.90
13446;DHT22;6795;51.232;3.764;2022-11-18T04:03:56;8.00;99.90
13446;DHT22;6795;51.232;3.764;2022-11-18T04:06:29;8.10;99.90
13446;DHT22;6795;51.232;3.764;2022-11-18T04:09:02;8.10;99.90
13446;DHT22;6795;51.232;3.764;2022-11-18T04:11:36;8.20;99.90
13446;DHT22;6795;51.232;3.764;2022-11-18T04:14:26;8.20;99.90
13446;DHT22;6795;51.232;3.764;2022-11-18T04:16:56;8.20;99.90
13446;DHT22;6795;51.232;3.764;2022-11-18T04:19:24;8.10;99.90
13446;DHT22;6795;51.232;3.764;2022-11-18T04:21:53;8.10;99.90
13446;DHT22;6795;51.232;3.764;2022-11-18T04:24:21;8.10;99.90
13446;DHT22;6795;51.232;3.764;2022-11-18T04:26:49;8.10;99.90
13446;DHT22;6795;51.232;3.764;2022-11-18T04:29:18;8.10;99.90
13446;DHT22;6795;51.232;3.764;2022-11-18T04:31:46;8.10;99.90
13446;DHT22;6795;51.232;3.764;2022-11-18T04:34:16;8.10;99.90
13446;DHT22;6795;51.232;3.764;2022-11-18T04:36:45;8.10;99.90
13446;DHT22;6795;51.232;3.764;2022-11-18T04:39:14;8.10;99.90
13446;DHT22;6795;51.232;3.764;2022-11-18T04:41:44;8.00;99.90
13446;DHT22;6795;51.232;3.764;2022-11-18T04:44:26;8.00;99.90
13446;DHT22;6795;51.232;3.764;2022-11-18T04:46:59;8.00;99.90
13446;DHT22;6795;51.232;3.764;2022-11-18T04:49:29;8.00;99.90
13446;DHT22;6795;51.232;3.764;2022-11-18T04:51:58;8.00;99.90
13446;DHT22;6795;51.232;3.764;2022-11-18T04:54:27;8.10;99.90
13446;DHT22;6795;51.232;3.764;2022-11-18T04:56:56;8.00;99.90
13446;DHT22;6795;51.232;3.764;2022-11-18T04:59:26;8.10;99.90
13446;DHT22;6795;51.232;3.764;2022-11-18T05:01:55;8.00;99.90
13446;DHT22;6795;51.232;3.764;2022-11-18T05:04:25;7.90;99.90
13446;DHT22;6795;51.232;3.764;2022-11-18T05:06:57;8.00;99.90
13446;DHT22;6795;51.232;3.764;2022-11-18T05:09:26;7.90;99.90
13446;DHT22;6795;51.232;3.764;2022-11-18T05:11:58;8.00;99.90
13446;DHT22;6795;51.232;3.764;2022-11-18T05:14:44;7.90;99.90
13446;DHT22;6795;51.232;3.764;2022-11-18T05:17:17;8.00;99.90
13446;DHT22;6795;51.232;3.764;2022-11-18T05:19:46;7.90;99.90
13446;DHT22;6795;51.232;3.764;2022-11-18T05:22:15;7.90;99.90
13446;DHT22;6795;51.232;3.764;2022-11-18T05:24:44;7.90;99.90
13446;DHT22;6795;51.232;3.764;2022-11-18T05:27:13;7.90;99.90
13446;DHT22;6795;51.232;3.764;2022-11-18T05:29:42;7.90;99.90
13446;DHT22;6795;51.232;3.764;2022-11-18T05:32:10;7.90;99.90
13446;DHT22;6795;51.232;3.764;2022-11-18T05:34:39;7.80;99.90
13446;DHT22;6795;51.232;3.764;2022-11-18T05:37:08;7.80;99.90
13446;DHT22;6795;51.232;3.764;2022-11-18T05:39:38;7.80;99.90
13446;DHT22;6795;51.232;3.764;2022-11-18T05:42:07;7.90;99.90
13446;DHT22;6795;51.232;3.764;2022-11-18T05:44:52;7.80;99.90
13446;DHT22;6795;51.232;3.764;2022-11-18T05:47:25;7.80;99.90
13446;DHT22;6795;51.232;3.764;2022-11-18T05:49:53;7.90;99.90
13446;DHT22;6795;51.232;3.764;2022-11-18T05:52:21;8.00;99.90
13446;DHT22;6795;51.232;3.764;2022-11-18T05:54:51;8.10;99.90
13446;DHT22;6795;51.232;3.764;2022-11-18T05:57:19;8.20;99.90
13446;DHT22;6795;51.232;3.764;2022-11-18T05:59:48;8.20;99.90
13446;DHT22;6795;51.232;3.764;2022-11-18T06:02:19;8.30;99.90
13446;DHT22;6795;51.232;3.764;2022-11-18T06:04:53;8.30;99.90
13446;DHT22;6795;51.232;3.764;2022-11-18T06:07:27;8.40;99.90
13446;DHT22;6795;51.232;3.764;2022-11-18T06:09:58;8.40;99.90
13446;DHT22;6795;51.232;3.764;2022-11-18T06:12:38;8.40;99.90
13446;DHT22;6795;51.232;3.764;2022-11-18T06:15:09;8.40;99.90
13446;DHT22;6795;51.232;3.764;2022-11-18T06:17:40;8.50;99.90
13446;DHT22;6795;51.232;3.764;2022-11-18T06:20:11;8.50;99.90
13446;DHT22;6795;51.232;3.764;2022-11-18T06:22:39;8.50;99.90
13446;DHT22;6795;51.232;3.764;2022-11-18T06:25:14;8.50;99.90
13446;DHT22;6795;51.232;3.764;2022-11-18T06:27:43;8.50;99.90
13446;DHT22;6795;51.232;3.764;2022-11-18T06:30:13;8.50;99.90
13446;DHT22;6795;51.232;3.764;2022-11-18T06:32:44;8.50;99.90
13446;DHT22;6795;51.232;3.764;2022-11-18T06:35:12;8.50;99.90
13446;DHT22;6795;51.232;3.764;2022-11-18T06:37:41;8.60;99.90
13446;DHT22;6795;51.232;3.764;2022-11-18T06:40:10;8.60;99.90
13446;DHT22;6795;51.232;3.764;2022-11-18T06:42:40;8.60;99.90
13446;DHT22;6795;51.232;3.764;2022-11-18T06:45:26;8.50;99.90
13446;DHT22;6795;51.232;3.764;2022-11-18T06:47:56;8.60;99.90
13446;DHT22;6795;51.232;3.764;2022-11-18T06:50:23;8.60;99.90
13446;DHT22;6795;51.232;3.764;2022-11-18T06:52:54;8.70;99.90
13446;DHT22;6795;51.232;3.764;2022-11-18T06:55:23;8.70;99.90
13446;DHT22;6795;51.232;3.764;2022-11-18T06:57:54;8.70;99.90
13446;DHT22;6795;51.232;3.764;2022-11-18T07:00:23;8.80;99.90
13446;DHT22;6795;51.232;3.764;2022-11-18T07:02:51;8.80;99.90
13446;DHT22;6795;51.232;3.764;2022-11-18T07:05:19;8.80;99.90
13446;DHT22;6795;51.232;3.764;2022-11-18T07:07:48;8.80;99.90
13446;DHT22;6795;51.232;3.764;2022-11-18T07:10:16;8.70;99.90
13446;DHT22;6795;51.232;3.764;2022-11-18T07:12:44;8.70;99.90
13446;DHT22;6795;51.232;3.764;2022-11-18T07:15:14;8.80;99.90
13446;DHT22;6795;51.232;3.764;2022-11-18T07:17:43;8.80;99.90
13446;DHT22;6795;51.232;3.764;2022-11-18T07:20:11;8.80;99.90
13446;DHT22;6795;51.232;3.764;2022-11-18T07:22:39;8.80;99.90
13446;DHT22;6795;51.232;3.764;2022-11-18T07:25:08;8.80;99.90
13446;DHT22;6795;51.232;3.764;2022-11-18T07:27:37;8.90;99.90
13446;DHT22;6795;51.232;3.764;2022-11-18T07:30:06;8.90;99.90
13446;DHT22;6795;51.232;3.764;2022-11-18T07:32:36;8.90;99.90
13446;DHT22;6795;51.232;3.764;2022-11-18T07:35:05;8.90;99.90
13446;DHT22;6795;51.232;3.764;2022-11-18T07:37:34;8.90;99.90
13446;DHT22;6795;51.232;3.764;2022-11-18T07:40:03;8.90;99.90
13446;DHT22;6795;51.232;3.764;2022-11-18T07:42:32;8.90;99.90
13446;DHT22;6795;51.232;3.764;2022-11-18T07:45:10;9.00;99.90
13446;DHT22;6795;51.232;3.764;2022-11-18T07:47:40;9.00;99.90
13446;DHT22;6795;51.232;3.764;2022-11-18T07:50:08;9.00;99.90
13446;DHT22;6795;51.232;3.764;2022-11-18T07:52:37;9.10;99.90
13446;DHT22;6795;51.232;3.764;2022-11-18T07:55:06;9.10;99.90
13446;DHT22;6795;51.232;3.764;2022-11-18T07:57:34;9.10;99.90
13446;DHT22;6795;51.232;3.764;2022-11-18T08:00:03;9.20;99.90
13446;DHT22;6795;51.232;3.764;2022-11-18T08:02:32;9.20;99.90
13446;DHT22;6795;51.232;3.764;2022-11-18T08:05:03;9.20;99.90
13446;DHT22;6795;51.232;3.764;2022-11-18T08:07:31;9.20;99.90
13446;DHT22;6795;51.232;3.764;2022-11-18T08:10:00;9.20;99.90
13446;DHT22;6795;51.232;3.764;2022-11-18T08:12:29;9.30;99.90
13446;DHT22;6795;51.232;3.764;2022-11-18T08:14:57;9.30;99.90
13446;DHT22;6795;51.232;3.764;2022-11-18T08:17:26;9.30;99.90
13446;DHT22;6795;51.232;3.764;2022-11-18T08:19:54;9.30;99.90
13446;DHT22;6795;51.232;3.764;2022-11-18T08:22:24;9.40;99.90
13446;DHT22;6795;51.232;3.764;2022-11-18T08:24:52;9.40;99.90
13446;DHT22;6795;51.232;3.764;2022-11-18T08:27:20;9.40;99.90
13446;DHT22;6795;51.232;3.764;2022-11-18T08:29:49;9.40;99.90
13446;DHT22;6795;51.232;3.764;2022-11-18T08:32:17;9.40;99.90
13446;DHT22;6795;51.232;3.764;2022-11-18T08:34:46;9.50;99.90
13446;DHT22;6795;51.232;3.764;2022-11-18T08:37:14;9.50;99.90
13446;DHT22;6795;51.232;3.764;2022-11-18T08:39:44;9.40;99.90
13446;DHT22;6795;51.232;3.764;2022-11-18T08:42:12;9.50;99.90
13446;DHT22;6795;51.232;3.764;2022-11-18T08:44:40;9.50;99.90
13446;DHT22;6795;51.232;3.764;2022-11-18T08:47:09;9.50;99.90
13446;DHT22;6795;51.232;3.764;2022-11-18T08:49:37;9.50;99.90
13446;DHT22;6795;51.232;3.764;2022-11-18T08:52:05;9.50;99.90
13446;DHT22;6795;51.232;3.764;2022-11-18T08:54:34;9.50;99.90
13446;DHT22;6795;51.232;3.764;2022-11-18T08:57:04;9.40;99.90
13446;DHT22;6795;51.232;3.764;2022-11-18T08:59:35;9.50;99.90
13446;DHT22;6795;51.232;3.764;2022-11-18T09:02:03;9.50;99.90
13446;DHT22;6795;51.232;3.764;2022-11-18T09:04:32;9.50;99.90
13446;DHT22;6795;51.232;3.764;2022-11-18T09:07:01;9.50;99.90
13446;DHT22;6795;51.232;3.764;2022-11-18T09:09:29;9.60;99.90
13446;DHT22;6795;51.232;3.764;2022-11-18T09:11:57;9.60;99.90
13446;DHT22;6795;51.232;3.764;2022-11-18T09:14:27;9.60;99.90
13446;DHT22;6795;51.232;3.764;2022-11-18T09:17:16;9.60;99.90
13446;DHT22;6795;51.232;3.764;2022-11-18T09:19:44;9.60;99.90
13446;DHT22;6795;51.232;3.764;2022-11-18T09:22:14;9.60;99.90
13446;DHT22;6795;51.232;3.764;2022-11-18T09:24:42;9.60;99.90
13446;DHT22;6795;51.232;3.764;2022-11-18T09:27:11;9.60;99.90
13446;DHT22;6795;51.232;3.764;2022-11-18T09:29:47;9.60;99.90
13446;DHT22;6795;51.232;3.764;2022-11-18T09:32:15;9.60;99.90
13446;DHT22;6795;51.232;3.764;2022-11-18T09:34:43;9.70;99.90
13446;DHT22;6795;51.232;3.764;2022-11-18T09:37:11;9.60;99.90
13446;DHT22;6795;51.232;3.764;2022-11-18T09:39:40;9.60;99.90
13446;DHT22;6795;51.232;3.764;2022-11-18T09:42:31;9.60;99.90
13446;DHT22;6795;51.232;3.764;2022-11-18T09:45:09;9.60;99.90
13446;DHT22;6795;51.232;3.764;2022-11-18T09:47:47;9.60;99.90
13446;DHT22;6795;51.232;3.764;2022-11-18T09:50:18;9.50;99.90
13446;DHT22;6795;51.232;3.764;2022-11-18T09:53:17;9.50;99.90
13446;DHT22;6795;51.232;3.764;2022-11-18T09:55:46;9.50;99.90
13446;DHT22;6795;51.232;3.764;2022-11-18T09:58:19;9.50;99.90
13446;DHT22;6795;51.232;3.764;2022-11-18T10:00:49;9.50;99.90
13446;DHT22;6795;51.232;3.764;2022-11-18T10:03:25;9.40;99.90
13446;DHT22;6795;51.232;3.764;2022-11-18T10:05:57;9.40;99.90
13446;DHT22;6795;51.232;3.764;2022-11-18T10:08:31;9.50;99.90
13446;DHT22;6795;51.232;3.764;2022-11-18T10:11:03;9.40;99.90
13446;DHT22;6795;51.232;3.764;2022-11-18T10:13:47;9.50;99.90
13446;DHT22;6795;51.232;3.764;2022-11-18T10:16:28;9.50;99.90
13446;DHT22;6795;51.232;3.764;2022-11-18T10:19:05;9.50;99.90
13446;DHT22;6795;51.232;3.764;2022-11-18T10:21:46;9.50;99.90
13446;DHT22;6795;51.232;3.764;2022-11-18T10:24:18;9.50;99.90
13446;DHT22;6795;51.232;3.764;2022-11-18T10:26:54;9.50;99.90
13446;DHT22;6795;51.232;3.764;2022-11-18T10:29:23;9.60;99.90
13446;DHT22;6795;51.232;3.764;2022-11-18T10:32:02;9.60;99.90
13446;DHT22;6795;51.232;3.764;2022-11-18T10:34:31;9.60;99.90
13446;DHT22;6795;51.232;3.764;2022-11-18T10:37:04;9.60;99.90
13446;DHT22;6795;51.232;3.764;2022-11-18T10:39:33;9.60;99.90
13446;DHT22;6795;51.232;3.764;2022-11-18T10:42:21;9.60;99.90
13446;DHT22;6795;51.232;3.764;2022-11-18T10:44:51;9.70;99.90
13446;DHT22;6795;51.232;3.764;2022-11-18T10:47:29;9.70;99.90
13446;DHT22;6795;51.232;3.764;2022-11-18T10:49:59;9.70;99.90
13446;DHT22;6795;51.232;3.764;2022-11-18T10:52:29;9.70;99.90
13446;DHT22;6795;51.232;3.764;2022-11-18T10:55:07;9.80;99.90
13446;DHT22;6795;51.232;3.764;2022-11-18T10:57:39;9.80;99.90
13446;DHT22;6795;51.232;3.764;2022-11-18T11:00:41;9.80;99.90
13446;DHT22;6795;51.232;3.764;2022-11-18T11:03:21;9.90;99.90
13446;DHT22;6795;51.232;3.764;2022-11-18T11:09:07;10.00;99.90
13446;DHT22;6795;51.232;3.764;2022-11-18T11:11:37;10.10;99.90
13446;DHT22;6795;51.232;3.764;2022-11-18T11:14:19;10.10;99.90
13446;DHT22;6795;51.232;3.764;2022-11-18T11:16:56;10.10;99.90
13446;DHT22;6795;51.232;3.764;2022-11-18T11:19:41;10.20;99.90
13446;DHT22;6795;51.232;3.764;2022-11-18T11:22:11;10.20;99.90
13446;DHT22;6795;51.232;3.764;2022-11-18T11:24:40;10.20;99.90
13446;DHT22;6795;51.232;3.764;2022-11-18T11:27:34;10.20;99.90
13446;DHT22;6795;51.232;3.764;2022-11-18T11:30:25;10.20;99.90
13446;DHT22;6795;51.232;3.764;2022-11-18T11:33:17;10.20;99.90
13446;DHT22;6795;51.232;3.764;2022-11-18T11:35:52;10.30;99.90
13446;DHT22;6795;51.232;3.764;2022-11-18T11:38:33;10.30;99.90
13446;DHT22;6795;51.232;3.764;2022-11-18T11:41:08;10.30;99.90
13446;DHT22;6795;51.232;3.764;2022-11-18T11:43:49;10.40;99.90
13446;DHT22;6795;51.232;3.764;2022-11-18T11:46:26;10.40;99.90
13446;DHT22;6795;51.232;3.764;2022-11-18T11:49:00;10.40;99.90
13446;DHT22;6795;51.232;3.764;2022-11-18T11:51:39;10.40;99.90
13446;DHT22;6795;51.232;3.764;2022-11-18T11:54:23;10.30;99.90
13446;DHT22;6795;51.232;3.764;2022-11-18T11:57:00;10.30;99.90
13446;DHT22;6795;51.232;3.764;2022-11-18T11:59:36;10.30;99.90
13446;DHT22;6795;51.232;3.764;2022-11-18T12:05:19;10.30;99.90
13446;DHT22;6795;51.232;3.764;2022-11-18T12:07:54;10.30;99.90
13446;DHT22;6795;51.232;3.764;2022-11-18T12:10:28;10.30;99.90
13446;DHT22;6795;51.232;3.764;2022-11-18T12:13:10;10.30;99.90
13446;DHT22;6795;51.232;3.764;2022-11-18T12:15:50;10.30;99.90
13446;DHT22;6795;51.232;3.764;2022-11-18T12:18:28;10.30;99.90
13446;DHT22;6795;51.232;3.764;2022-11-18T12:20:58;10.30;99.90
13446;DHT22;6795;51.232;3.764;2022-11-18T12:23:29;10.30;99.90
13446;DHT22;6795;51.232;3.764;2022-11-18T12:26:00;10.20;99.90
13446;DHT22;6795;51.232;3.764;2022-11-18T12:28:32;10.30;99.90
13446;DHT22;6795;51.232;3.764;2022-11-18T12:34:28;10.30;99.90
13446;DHT22;6795;51.232;3.764;2022-11-18T12:40:09;10.40;99.90
13446;DHT22;6795;51.232;3.764;2022-11-18T12:42:40;10.40;99.90
13446;DHT22;6795;51.232;3.764;2022-11-18T12:45:57;10.50;99.90
13446;DHT22;6795;51.232;3.764;2022-11-18T12:48:33;10.50;99.90
13446;DHT22;6795;51.232;3.764;2022-11-18T12:53:57;10.60;99.90
13446;DHT22;6795;51.232;3.764;2022-11-18T12:56:33;10.60;99.90
13446;DHT22;6795;51.232;3.764;2022-11-18T12:59:02;10.60;99.90
13446;DHT22;6795;51.232;3.764;2022-11-18T13:01:32;10.60;99.90
13446;DHT22;6795;51.232;3.764;2022-11-18T13:04:06;10.70;99.90
13446;DHT22;6795;51.232;3.764;2022-11-18T13:06:37;10.70;99.90
13446;DHT22;6795;51.232;3.764;2022-11-18T13:09:13;10.60;99.90
13446;DHT22;6795;51.232;3.764;2022-11-18T13:11:49;10.70;99.90
13446;DHT22;6795;51.232;3.764;2022-11-18T13:14:20;10.60;99.90
13446;DHT22;6795;51.232;3.764;2022-11-18T13:17:30;10.70;99.90
13446;DHT22;6795;51.232;3.764;2022-11-18T13:20:22;10.70;99.90
13446;DHT22;6795;51.232;3.764;2022-11-18T13:22:54;10.60;99.90
13446;DHT22;6795;51.232;3.764;2022-11-18T13:25:42;10.70;99.90
13446;DHT22;6795;51.232;3.764;2022-11-18T13:28:20;10.70;99.90
13446;DHT22;6795;51.232;3.764;2022-11-18T13:30:55;10.70;99.90
13446;DHT22;6795;51.232;3.764;2022-11-18T13:33:37;10.70;99.90
13446;DHT22;6795;51.232;3.764;2022-11-18T13:36:15;10.70;99.90
13446;DHT22;6795;51.232;3.764;2022-11-18T13:38:54;10.70;99.90
13446;DHT22;6795;51.232;3.764;2022-11-18T13:41:23;10.70;99.90
13446;DHT22;6795;51.232;3.764;2022-11-18T13:44:16;10.70;99.90
13446;DHT22;6795;51.232;3.764;2022-11-18T13:46:47;10.70;99.90
13446;DHT22;6795;51.232;3.764;2022-11-18T13:49:20;10.70;99.90
13446;DHT22;6795;51.232;3.764;2022-11-18T13:51:50;10.70;99.90
13446;DHT22;6795;51.232;3.764;2022-11-18T13:54:22;10.70;99.90
13446;DHT22;6795;51.232;3.764;2022-11-18T13:56:52;10.80;99.90
13446;DHT22;6795;51.232;3.764;2022-11-18T13:59:22;10.70;99.90
13446;DHT22;6795;51.232;3.764;2022-11-18T14:01:53;10.80;99.90
13446;DHT22;6795;51.232;3.764;2022-11-18T14:04:24;10.70;99.90
13446;DHT22;6795;51.232;3.764;2022-11-18T14:06:53;10.70;99.90
13446;DHT22;6795;51.232;3.764;2022-11-18T14:09:52;10.80;99.90
13446;DHT22;6795;51.232;3.764;2022-11-18T14:12:23;10.70;99.90
13446;DHT22;6795;51.232;3.764;2022-11-18T14:15:10;10.80;99.90
13446;DHT22;6795;51.232;3.764;2022-11-18T14:17:50;10.80;99.90
13446;DHT22;6795;51.232;3.764;2022-11-18T14:20:18;10.70;99.90
13446;DHT22;6795;51.232;3.764;2022-11-18T14:22:51;10.70;99.90
13446;DHT22;6795;51.232;3.764;2022-11-18T14:25:23;10.70;99.90
13446;DHT22;6795;51.232;3.764;2022-11-18T14:27:53;10.70;99.90
13446;DHT22;6795;51.232;3.764;2022-11-18T14:30:29;10.60;99.90
13446;DHT22;6795;51.232;3.764;2022-11-18T14:33:08;10.70;99.90
13446;DHT22;6795;51.232;3.764;2022-11-18T14:35:37;10.80;99.90
13446;DHT22;6795;51.232;3.764;2022-11-18T14:38:11;10.70;99.90
13446;DHT22;6795;51.232;3.764;2022-11-18T14:41:02;10.80;99.90
13446;DHT22;6795;51.232;3.764;2022-11-18T14:43:30;10.70;99.90
13446;DHT22;6795;51.232;3.764;2022-11-18T14:46:03;10.70;99.90
13446;DHT22;6795;51.232;3.764;2022-11-18T14:48:32;10.70;99.90
13446;DHT22;6795;51.232;3.764;2022-11-18T14:51:01;10.80;99.90
13446;DHT22;6795;51.232;3.764;2022-11-18T14:53:29;10.80;99.90
13446;DHT22;6795;51.232;3.764;2022-11-18T14:55:58;10.70;99.90
13446;DHT22;6795;51.232;3.764;2022-11-18T14:58:27;10.70;99.90
13446;DHT22;6795;51.232;3.764;2022-11-18T15:00:55;10.70;99.90
13446;DHT22;6795;51.232;3.764;2022-11-18T15:03:25;10.70;99.90
13446;DHT22;6795;51.232;3.764;2022-11-18T15:05:53;10.70;99.90
13446;DHT22;6795;51.232;3.764;2022-11-18T15:08:22;10.70;99.90
13446;DHT22;6795;51.232;3.764;2022-11-18T15:10:50;10.70;99.90
13446;DHT22;6795;51.232;3.764;2022-11-18T15:13:19;10.70;99.90
13446;DHT22;6795;51.232;3.764;2022-11-18T15:15:47;10.60;99.90
13446;DHT22;6795;51.232;3.764;2022-11-18T15:18:15;10.70;99.90
13446;DHT22;6795;51.232;3.764;2022-11-18T15:27:25;10.60;99.90
13446;DHT22;6795;51.232;3.764;2022-11-18T15:29:53;10.60;99.90
13446;DHT22;6795;51.232;3.764;2022-11-18T15:32:27;10.60;99.90
13446;DHT22;6795;51.232;3.764;2022-11-18T15:34:56;10.50;99.90
13446;DHT22;6795;51.232;3.764;2022-11-18T15:37:24;10.60;99.90
13446;DHT22;6795;51.232;3.764;2022-11-18T15:39:52;10.50;99.90
13446;DHT22;6795;51.232;3.764;2022-11-18T15:42:21;10.60;99.90
13446;DHT22;6795;51.232;3.764;2022-11-18T15:44:50;10.50;99.90
13446;DHT22;6795;51.232;3.764;2022-11-18T15:47:19;10.60;99.90
13446;DHT22;6795;51.232;3.764;2022-11-18T15:49:47;10.50;99.90
13446;DHT22;6795;51.232;3.764;2022-11-18T15:52:15;10.50;99.90
13446;DHT22;6795;51.232;3.764;2022-11-18T15:54:45;10.50;99.90
13446;DHT22;6795;51.232;3.764;2022-11-18T15:57:13;10.50;99.90
13446;DHT22;6795;51.232;3.764;2022-11-18T15:59:41;10.40;99.90
13446;DHT22;6795;51.232;3.764;2022-11-18T16:02:11;10.40;99.90
13446;DHT22;6795;51.232;3.764;2022-11-18T16:04:40;10.40;99.90
13446;DHT22;6795;51.232;3.764;2022-11-18T16:07:08;10.40;99.90
13446;DHT22;6795;51.232;3.764;2022-11-18T16:09:37;10.40;99.90
13446;DHT22;6795;51.232;3.764;2022-11-18T16:12:22;10.30;99.90
13446;DHT22;6795;51.232;3.764;2022-11-18T16:15:08;10.40;99.90
13446;DHT22;6795;51.232;3.764;2022-11-18T16:17:56;10.30;99.90
13446;DHT22;6795;51.232;3.764;2022-11-18T16:20:25;10.30;99.90
13446;DHT22;6795;51.232;3.764;2022-11-18T16:22:54;10.30;99.90
13446;DHT22;6795;51.232;3.764;2022-11-18T16:25:23;10.30;99.90
13446;DHT22;6795;51.232;3.764;2022-11-18T16:27:53;10.30;99.90
13446;DHT22;6795;51.232;3.764;2022-11-18T16:30:27;10.30;99.90
13446;DHT22;6795;51.232;3.764;2022-11-18T16:33:15;10.40;99.90
13446;DHT22;6795;51.232;3.764;2022-11-18T16:35:46;10.30;99.90
13446;DHT22;6795;51.232;3.764;2022-11-18T16:38:15;10.30;99.90
13446;DHT22;6795;51.232;3.764;2022-11-18T16:40:43;10.30;99.90
13446;DHT22;6795;51.232;3.764;2022-11-18T16:43:11;10.30;99.90
13446;DHT22;6795;51.232;3.764;2022-11-18T16:45:39;10.30;99.90
13446;DHT22;6795;51.232;3.764;2022-11-18T16:48:08;10.30;99.90
13446;DHT22;6795;51.232;3.764;2022-11-18T16:50:38;10.30;99.90
13446;DHT22;6795;51.232;3.764;2022-11-18T16:53:06;10.30;99.90
13446;DHT22;6795;51.232;3.764;2022-11-18T16:55:35;10.30;99.90
13446;DHT22;6795;51.232;3.764;2022-11-18T16:58:03;10.30;99.90